West Aliquippa, Pennsylvania
Current Conditions -  °F | °C
As of 3:51 PM on Friday 28 Nov 2014 (Local Time) from KPIT Reporting Station
Broken Clouds Broken Clouds  
Wind Chill: 17°   Ceiling: 3200
Heat Index: 27°   Visibility: 10mi
Dew Point: 15°   Wind: 10mph
Humidity: 61%   Direction: 240°WSW
Pressure: 30.23"   Gusts: NA
Location:  40.5921°N, 80.3191°W
Report Text: KPIT 282051Z 24009KT 10SM BKN032 BKN140 M03/M09 A3023 RMK AO2 SLP260 T10281094 56013
Loading
Personal Weather Stations






























Interactive Weather Map New forecast layout! Learn more

10-Day Weather Forecast

Advertisements
Track Severe Weather on mobile